This is the latest recevied weather packets stored in our database for station/object N1TKS. If no packets are shown the sender has not sent any weather packets the latest 10 day(s).
| Time | Temp. | Humidity | Pressure | Rain* | Wind** | Luminosity | Snow |
|---|---|---|---|---|---|---|---|
| 1777417016 | 15.56° C | 55% | 1018.6 hPa | 0 mm | - | - | - |
| 1777416979 | 15.56° C | 55% | 1018.8 hPa | 0 mm | - | - | - |
| 1777416117 | 15.56° C | 55% | 1018.7 hPa | 0 mm | - | - | - |
| 1777415669 | 15.56° C | 55% | 1018.8 hPa | 0 mm | - | - | - |
| 1777415515 | 15.56° C | 55% | 1018.8 hPa | 0 mm | - | - | - |
| 1777415337 | 15.56° C | 55% | 1018.8 hPa | 0 mm | - | - | - |
| 1777415215 | 15.56° C | 55% | 1018.8 hPa | 0 mm | - | - | - |
| 1777414916 | 15.56° C | 55% | 1018.8 hPa | 0 mm | - | - | - |
| 1777414614 | 15.56° C | 54% | 1018.8 hPa | 0 mm | - | - | - |
| 1777414314 | 15.56° C | 55% | 1018.8 hPa | 0 mm | - | - | - |
| 1777413576 | 16.11° C | 54% | 1018.8 hPa | 0 mm | - | - | - |
| 1777413487 | 16.11° C | 54% | 1018.8 hPa | 0 mm | - | - | - |
| 1777413416 | 16.11° C | 54% | 1018.8 hPa | 0 mm | - | - | - |
| 1777413136 | 16.67° C | 51% | 1019 hPa | 0 mm | - | - | - |
| 1777413116 | 16.11° C | 54% | 1018.8 hPa | 0 mm | - | - | - |
| 1777412815 | 16.11° C | 54% | 1018.9 hPa | 0 mm | - | - | - |
| 1777412518 | 16.11° C | 53% | 1018.9 hPa | 0 mm | - | - | - |
| 1777411613 | 16.67° C | 51% | 1019 hPa | 0 mm | - | - | - |
| 1777411316 | 16.67° C | 52% | 1019 hPa | 0 mm | - | - | - |
| 1777411215 | 16.67° C | 52% | 1018.9 hPa | 0 mm | - | - | - |
| 1777411013 | 16.67° C | 52% | 1018.9 hPa | 0 mm | - | - | - |
| 1777410714 | 16.67° C | 52% | 1018.9 hPa | 0 mm | - | - | - |
| 1777410549 | 16.67° C | 52% | 1019 hPa | 0 mm | - | - | - |
| 1777410514 | 16.67° C | 52% | 1019 hPa | 0 mm | - | - | - |
| 1777410417 | 16.67° C | 52% | 1019 hPa | 0 mm | - | - | - |
* Rain latest hour (hover to see other rain measurements)
** Current wind speed in m/s (hover to see current wind gust speed)